Time;durP1;ratioP1;P1;durP2;ratioP2;P2;SDS_P1;SDS_P2;PMS_P1;PMS_P2;Temp;Humidity;BMP_temperature;BMP_pressure;BME280_temperature;BME280_humidity;BME280_pressure;Samples;Min_cycle;Max_cycle;Signal;HPM_P1;HPM_P2
2022/06/14 00:01:25;;;;;;;3.17;1.25;;;13.20;64.50;;;;;;4919873;29;20043;-79
2022/06/14 00:03:51;;;;;;;4.32;1.20;;;13.20;64.10;;;;;;4923103;28;20034;-79
2022/06/14 00:06:18;;;;;;;6.82;2.80;;;13.10;64.40;;;;;;4924952;28;20117;-79
2022/06/14 00:08:44;;;;;;;5.63;1.63;;;13.20;64.90;;;;;;4893427;28;20043;-79
2022/06/14 00:11:22;;;;;;;3.40;1.65;;;13.10;64.20;;;;;;4938695;28;20042;-79
2022/06/14 00:13:48;;;;;;;2.72;1.42;;;13.00;64.70;;;;;;4935710;28;20043;-79
2022/06/14 00:16:14;;;;;;;3.97;1.50;;;13.10;64.80;;;;;;4918209;29;20043;-79
2022/06/14 00:18:39;;;;;;;3.15;1.45;;;12.90;65.00;;;;;;4935255;29;20047;-79
2022/06/14 00:21:05;;;;;;;4.80;1.50;;;12.70;64.60;;;;;;4928805;28;20034;-79
2022/06/14 00:23:31;;;;;;;4.95;1.50;;;12.80;64.60;;;;;;4920750;28;20031;-78
2022/06/14 00:25:57;;;;;;;3.13;1.30;;;12.80;65.40;;;;;;4921761;28;20046;-79
2022/06/14 00:28:24;;;;;;;5.45;1.65;;;12.90;65.80;;;;;;4920193;28;20483;-79
2022/06/14 00:30:51;;;;;;;2.90;1.65;;;12.80;64.90;;;;;;4910255;28;20559;-78
2022/06/14 00:33:17;;;;;;;2.78;1.33;;;12.70;65.70;;;;;;4906279;28;20517;-79
2022/06/14 00:35:43;;;;;;;6.45;1.52;;;12.60;65.40;;;;;;4932558;29;20035;-78
2022/06/14 00:38:10;;;;;;;7.03;1.95;;;12.60;65.80;;;;;;4902194;28;20031;-78
2022/06/14 00:40:36;;;;;;;3.22;1.70;;;12.50;65.60;;;;;;4916925;28;20360;-79
2022/06/14 00:43:04;;;;;;;3.03;1.10;;;12.30;65.00;;;;;;4936261;28;20035;-78
2022/06/14 00:45:30;;;;;;;4.72;1.38;;;12.30;65.50;;;;;;4923245;28;20023;-78
2022/06/14 00:48:21;;;;;;;7.35;2.20;;;12.40;65.80;;;;;;4935745;28;20561;-78
2022/06/14 00:51:05;;;;;;;4.75;1.67;;;12.30;65.40;;;;;;4937924;28;20040;-79
2022/06/14 00:53:41;;;;;;;7.82;2.10;;;12.40;66.20;;;;;;4922773;28;20388;-78
2022/06/14 00:56:15;;;;;;;4.50;1.67;;;12.30;66.40;;;;;;4922508;29;20039;-78
2022/06/14 00:58:44;;;;;;;2.80;1.60;;;12.20;66.10;;;;;;4920467;28;20035;-78
2022/06/14 01:01:15;;;;;;;5.38;1.45;;;12.20;66.30;;;;;;4923565;28;20035;-78
2022/06/14 01:03:43;;;;;;;6.45;1.88;;;12.20;67.20;;;;;;4919307;28;20038;-78
2022/06/14 01:06:17;;;;;;;8.43;1.80;;;12.20;66.90;;;;;;4920136;28;20071;-78
2022/06/14 01:08:47;;;;;;;3.58;1.88;;;12.00;66.40;;;;;;4897230;28;20491;-78
2022/06/14 01:11:38;;;;;;;3.08;1.60;;;11.80;66.80;;;;;;4918611;28;20100;-78
2022/06/14 01:14:05;;;;;;;2.92;1.40;;;12.00;67.70;;;;;;4920613;28;20073;-78
2022/06/14 01:16:31;;;;;;;4.20;2.20;;;11.90;66.50;;;;;;4937702;28;20041;-78
2022/06/14 01:18:57;;;;;;;2.70;1.35;;;11.80;66.40;;;;;;4919322;28;20031;-78
2022/06/14 01:21:23;;;;;;;5.05;1.58;;;11.70;66.40;;;;;;4902520;28;20037;-78
2022/06/14 01:23:49;;;;;;;3.30;1.42;;;11.60;67.10;;;;;;4934706;29;20495;-78
2022/06/14 01:26:24;;;;;;;3.72;1.20;;;11.60;66.80;;;;;;4918276;28;20115;-78
2022/06/14 01:28:52;;;;;;;10.60;2.13;;;11.60;67.00;;;;;;4934553;28;20035;-79
2022/06/14 01:31:18;;;;;;;3.15;1.75;;;11.60;66.70;;;;;;4920326;28;20849;-78
2022/06/14 01:33:46;;;;;;;4.80;1.85;;;11.50;66.60;;;;;;4920239;28;20035;-78
2022/06/14 01:36:22;;;;;;;7.25;1.80;;;11.40;66.80;;;;;;4920199;28;20055;-78
2022/06/14 01:38:48;;;;;;;4.47;1.70;;;11.40;67.10;;;;;;4922708;28;20036;-78
2022/06/14 01:41:21;;;;;;;3.35;1.88;;;11.40;67.50;;;;;;4921106;28;20558;-78
2022/06/14 01:44:02;;;;;;;7.38;2.40;;;11.40;67.20;;;;;;4931556;28;20043;-78
2022/06/14 01:46:36;;;;;;;4.80;1.50;;;11.30;67.30;;;;;;4921808;28;20043;-78
2022/06/14 01:52:31;;;;;;;2.60;1.10;;;11.40;68.50;;;;;;4937004;28;20038;-78
2022/06/14 01:55:11;;;;;;;3.83;1.60;;;11.40;67.80;;;;;;4905829;29;20162;-78
2022/06/14 01:58:00;;;;;;;3.47;1.65;;;11.20;67.70;;;;;;4918427;28;20039;-78
2022/06/14 02:00:29;;;;;;;3.95;2.00;;;11.20;68.20;;;;;;4917748;28;20514;-78
2022/06/14 02:06:02;;;;;;;5.10;2.03;;;11.10;68.30;;;;;;4938823;28;20524;-79
2022/06/14 02:08:31;;;;;;;4.53;1.67;;;10.90;68.20;;;;;;4933125;28;20555;-79
2022/06/14 02:11:04;;;;;;;5.00;2.33;;;10.80;68.20;;;;;;4907154;28;20600;-78
2022/06/14 02:13:57;;;;;;;4.20;1.67;;;10.90;69.80;;;;;;4917357;28;20430;-79
2022/06/14 02:16:38;;;;;;;4.15;1.50;;;11.10;70.00;;;;;;4904592;28;20514;-79
2022/06/14 02:19:12;;;;;;;4.55;2.00;;;11.00;69.60;;;;;;4908952;28;20138;-78
2022/06/14 02:21:43;;;;;;;6.88;2.00;;;10.80;68.60;;;;;;4916501;28;20793;-78
2022/06/14 02:24:24;;;;;;;5.53;1.90;;;10.80;70.00;;;;;;4916838;28;20032;-78
2022/06/14 02:27:00;;;;;;;8.15;2.15;;;10.80;70.40;;;;;;4934013;28;20445;-78
2022/06/14 02:29:51;;;;;;;5.38;2.38;;;10.60;69.40;;;;;;4933208;28;20035;-78
2022/06/14 02:32:26;;;;;;;3.20;1.73;;;10.50;70.30;;;;;;4906464;28;20054;-79
2022/06/14 02:35:05;;;;;;;4.93;2.15;;;10.50;70.10;;;;;;4916801;28;20055;-79
2022/06/14 02:37:51;;;;;;;5.40;1.65;;;10.60;70.90;;;;;;4914763;29;20113;-78
2022/06/14 02:40:28;;;;;;;6.78;2.53;;;10.60;70.60;;;;;;4927299;28;20047;-78
2022/06/14 02:43:01;;;;;;;2.75;1.77;;;10.50;70.90;;;;;;4923767;28;20515;-78
2022/06/14 02:45:30;;;;;;;4.75;2.22;;;10.50;70.40;;;;;;4918720;28;20035;-78
2022/06/14 02:48:25;;;;;;;2.45;1.15;;;10.40;70.50;;;;;;4907849;28;20078;-79
2022/06/14 02:51:06;;;;;;;2.17;1.33;;;10.50;72.20;;;;;;4938022;28;20047;-78
2022/06/14 02:53:47;;;;;;;2.35;1.20;;;10.70;72.00;;;;;;4920571;28;20031;-78
2022/06/14 02:56:18;;;;;;;4.45;1.40;;;10.60;72.60;;;;;;4922984;28;20045;-78
2022/06/14 02:59:00;;;;;;;2.75;1.23;;;10.50;72.60;;;;;;4902174;28;20594;-78
2022/06/14 03:01:28;;;;;;;3.08;1.95;;;10.60;73.00;;;;;;4921209;28;20058;-78
2022/06/14 03:04:10;;;;;;;5.82;1.92;;;10.60;74.20;;;;;;4921060;28;20763;-78
2022/06/14 03:06:49;;;;;;;3.05;1.40;;;10.50;74.40;;;;;;4920157;29;20122;-78
2022/06/14 03:09:20;;;;;;;3.58;1.55;;;10.30;73.40;;;;;;4908407;28;20102;-78
2022/06/14 03:11:58;;;;;;;4.95;2.00;;;10.10;75.50;;;;;;4918124;29;20480;-78
2022/06/14 03:14:40;;;;;;;5.07;1.75;;;10.10;83.80;;;;;;4921355;28;20030;-78
2022/06/14 03:17:59;;;;;;;3.53;1.92;;;10.10;88.50;;;;;;4940931;28;20030;-78
2022/06/14 03:20:30;;;;;;;3.53;1.60;;;10.10;79.40;;;;;;4871929;29;20043;-78
2022/06/14 03:23:20;;;;;;;5.13;2.17;;;10.00;81.00;;;;;;4880035;29;20036;-78
2022/06/14 03:26:05;;;;;;;3.90;1.77;;;9.90;73.10;;;;;;4917431;28;20086;-78
2022/06/14 03:28:46;;;;;;;4.18;1.98;;;9.90;73.30;;;;;;4923617;28;20611;-78
2022/06/14 03:31:21;;;;;;;2.80;1.60;;;9.90;73.20;;;;;;4912132;28;20054;-78
2022/06/14 03:34:01;;;;;;;4.95;1.73;;;9.90;73.40;;;;;;4955775;28;20565;-78
2022/06/14 03:36:27;;;;;;;3.88;1.55;;;9.90;73.50;;;;;;4913142;28;20042;-78
2022/06/14 03:38:56;;;;;;;6.40;2.40;;;9.80;73.00;;;;;;4922143;28;20027;-79
2022/06/14 03:41:24;;;;;;;5.22;2.42;;;9.80;74.40;;;;;;4916963;28;20490;-78
2022/06/14 03:43:50;;;;;;;5.65;2.20;;;9.60;75.70;;;;;;4920314;28;20039;-78
2022/06/14 03:46:31;;;;;;;7.40;2.17;;;9.50;79.10;;;;;;4905269;28;20469;-78
2022/06/14 03:49:01;;;;;;;8.77;2.53;;;9.50;75.90;;;;;;4921287;28;20039;-78
2022/06/14 03:51:40;;;;;;;9.13;3.38;;;9.50;75.20;;;;;;4906416;28;20111;-78
2022/06/14 03:54:21;;;;;;;13.00;3.97;;;9.60;74.80;;;;;;4920582;28;20031;-78
2022/06/14 03:56:59;;;;;;;7.55;2.17;;;9.50;75.10;;;;;;4935395;28;20042;-78
2022/06/14 03:59:33;;;;;;;4.20;2.33;;;9.50;74.60;;;;;;4951097;28;20054;-78
2022/06/14 04:02:10;;;;;;;3.80;2.45;;;9.60;75.00;;;;;;4936100;28;20056;-78
2022/06/14 04:04:56;;;;;;;3.67;1.83;;;9.80;75.70;;;;;;4933291;28;20032;-79
2022/06/14 04:07:44;;;;;;;5.38;2.65;;;9.80;74.90;;;;;;4921066;28;21034;-78
2022/06/14 04:10:41;;;;;;;4.68;2.42;;;9.80;75.70;;;;;;4909803;28;20046;-78
2022/06/14 04:13:27;;;;;;;4.90;2.55;;;9.90;79.20;;;;;;4917497;29;20063;-78
2022/06/14 04:15:58;;;;;;;7.90;3.20;;;9.90;77.30;;;;;;4930700;29;20039;-78
2022/06/14 04:18:51;;;;;;;7.13;2.88;;;10.00;75.30;;;;;;4920578;28;20114;-78
2022/06/14 04:21:40;;;;;;;5.10;2.28;;;10.00;75.00;;;;;;4910984;28;20084;-78
2022/06/14 04:24:17;;;;;;;7.47;2.85;;;10.10;74.60;;;;;;4918072;29;20039;-78
2022/06/14 04:27:27;;;;;;;5.82;3.13;;;10.20;74.80;;;;;;4949550;28;20412;-78
2022/06/14 04:30:17;;;;;;;7.90;3.00;;;10.20;74.80;;;;;;4949064;28;20043;-78
2022/06/14 04:32:53;;;;;;;7.15;2.97;;;10.30;75.10;;;;;;4928587;29;20036;-78
2022/06/14 04:35:31;;;;;;;12.20;3.45;;;10.40;74.60;;;;;;4935023;28;20043;-78
2022/06/14 04:38:06;;;;;;;7.10;3.25;;;10.50;75.30;;;;;;4917545;28;20143;-78
2022/06/14 04:40:40;;;;;;;8.77;3.40;;;10.70;75.70;;;;;;4917537;29;20700;-78
2022/06/14 04:43:11;;;;;;;7.32;2.80;;;10.80;75.80;;;;;;4931722;28;20255;-78
2022/06/14 04:45:43;;;;;;;6.88;3.40;;;10.80;75.70;;;;;;4916538;28;20042;-78
2022/06/14 04:48:42;;;;;;;10.13;2.88;;;11.30;75.60;;;;;;4915611;28;20082;-78
2022/06/14 04:51:18;;;;;;;5.05;3.08;;;11.40;74.90;;;;;;4930134;28;20063;-78
2022/06/14 04:53:54;;;;;;;7.13;3.25;;;11.50;74.90;;;;;;4918301;29;20042;-78
2022/06/14 04:56:22;;;;;;;11.10;2.67;;;11.70;75.30;;;;;;4928349;28;20035;-78
2022/06/14 04:58:52;;;;;;;10.05;2.97;;;11.90;75.50;;;;;;4918643;28;20561;-78
2022/06/14 05:01:22;;;;;;;7.20;2.85;;;12.00;75.60;;;;;;4939941;28;20117;-78
2022/06/14 05:03:58;;;;;;;4.80;2.50;;;12.20;75.10;;;;;;4922525;28;20077;-78
2022/06/14 05:06:46;;;;;;;7.30;2.95;;;12.40;75.40;;;;;;4924609;28;20058;-78
2022/06/14 05:09:14;;;;;;;7.20;2.30;;;12.60;75.10;;;;;;4939751;28;20414;-78
2022/06/14 05:11:39;;;;;;;11.07;3.00;;;12.90;74.10;;;;;;4922177;29;20495;-79
2022/06/14 05:14:23;;;;;;;6.50;2.33;;;13.00;76.50;;;;;;4957205;28;20031;-79
2022/06/14 05:16:52;;;;;;;6.82;2.85;;;13.30;76.80;;;;;;4904133;28;20035;-79
2022/06/14 05:19:31;;;;;;;9.57;2.83;;;13.60;77.90;;;;;;4926006;28;20074;-79
2022/06/14 05:22:03;;;;;;;5.40;2.40;;;13.80;77.80;;;;;;4926199;28;20047;-79
2022/06/14 05:24:28;;;;;;;7.22;2.78;;;14.00;78.70;;;;;;4924032;28;20399;-79
2022/06/14 05:27:15;;;;;;;8.57;3.10;;;14.40;79.50;;;;;;4905445;28;20041;-79
2022/06/14 05:29:47;;;;;;;5.05;2.95;;;14.70;79.80;;;;;;4934871;28;20113;-79
2022/06/14 05:32:25;;;;;;;6.93;2.90;;;15.10;79.50;;;;;;4937365;28;20034;-79
2022/06/14 05:35:21;;;;;;;12.45;3.75;;;15.20;80.60;;;;;;4924354;28;20039;-79
2022/06/14 05:37:51;;;;;;;6.82;3.03;;;15.60;79.00;;;;;;4955341;28;20043;-79
2022/06/14 05:40:41;;;;;;;8.82;4.03;;;15.90;77.50;;;;;;4917002;28;20035;-79
2022/06/14 05:43:07;;;;;;;5.78;3.40;;;;;;;;;;4943739;28;20699;-79
2022/06/14 05:45:36;;;;;;;10.00;3.08;;;16.60;98.80;;;;;;4929321;28;20035;-79
2022/06/14 05:48:06;;;;;;;9.10;3.20;;;16.80;96.60;;;;;;4905501;28;20058;-79
2022/06/14 05:50:34;;;;;;;5.85;3.60;;;;;;;;;;4922285;28;20046;-79
2022/06/14 05:53:24;;;;;;;5.75;2.70;;;17.40;88.80;;;;;;4917942;29;20063;-79
2022/06/14 05:56:05;;;;;;;12.75;4.03;;;17.70;82.90;;;;;;4939721;28;20035;-79
2022/06/14 05:58:34;;;;;;;7.55;3.38;;;18.00;79.20;;;;;;4917762;28;20039;-79
2022/06/14 06:01:07;;;;;;;7.30;2.97;;;18.40;76.80;;;;;;4954889;28;20046;-78
2022/06/14 06:03:39;;;;;;;8.00;3.35;;;18.60;75.90;;;;;;4911743;29;20550;-78
2022/06/14 06:06:08;;;;;;;8.48;3.17;;;18.90;75.70;;;;;;4922047;28;20045;-78
2022/06/14 06:08:42;;;;;;;14.45;3.45;;;19.00;74.60;;;;;;4936415;28;20046;-79
2022/06/14 06:11:29;;;;;;;6.22;3.00;;;19.30;74.60;;;;;;4929324;28;20042;-78
2022/06/14 06:14:26;;;;;;;13.27;4.05;;;19.60;73.90;;;;;;4938271;28;20027;-79
2022/06/14 06:17:05;;;;;;;5.05;2.47;;;19.80;73.30;;;;;;4907309;28;20758;-79
2022/06/14 06:20:18;;;;;;;6.72;3.15;;;20.20;73.10;;;;;;4910316;28;20431;-79
2022/06/14 06:22:53;;;;;;;8.70;3.08;;;20.50;72.60;;;;;;4910969;28;20518;-79
2022/06/14 06:25:25;;;;;;;6.80;3.63;;;20.80;71.90;;;;;;4931090;28;20027;-79
2022/06/14 06:27:56;;;;;;;8.32;3.53;;;21.20;71.00;;;;;;4925631;28;20093;-79
2022/06/14 06:30:38;;;;;;;13.38;4.30;;;21.50;70.60;;;;;;4937085;28;20553;-79
2022/06/14 06:33:05;;;;;;;13.13;3.22;;;21.70;68.50;;;;;;4920676;28;20394;-79
2022/06/14 06:35:35;;;;;;;7.82;3.95;;;21.80;66.80;;;;;;4910032;28;20042;-79
2022/06/14 06:38:30;;;;;;;8.90;3.53;;;21.80;66.30;;;;;;4928997;28;20044;-79
2022/06/14 06:43:52;;;;;;;11.90;3.15;;;22.20;65.80;;;;;;4944188;28;20499;-79
2022/06/14 06:46:18;;;;;;;12.25;3.67;;;22.00;65.00;;;;;;4928643;28;20051;-79
2022/06/14 06:48:47;;;;;;;7.28;2.65;;;22.00;64.10;;;;;;4910751;28;20023;-79
2022/06/14 06:51:14;;;;;;;9.52;2.80;;;21.90;64.20;;;;;;4928293;28;20453;-79
2022/06/14 06:53:42;;;;;;;9.52;2.65;;;21.90;64.10;;;;;;4911019;28;20414;-79
2022/06/14 06:56:13;;;;;;;8.57;3.70;;;22.00;64.20;;;;;;4910576;28;20442;-79
2022/06/14 06:59:02;;;;;;;9.60;2.70;;;22.00;64.10;;;;;;4936700;28;20037;-79
2022/06/14 07:01:31;;;;;;;8.07;3.20;;;22.20;64.10;;;;;;4930364;28;20030;-79
2022/06/14 07:03:59;;;;;;;7.20;2.78;;;22.30;63.90;;;;;;4907662;28;20039;-79
2022/06/14 07:06:40;;;;;;;9.68;3.58;;;22.60;63.80;;;;;;4940655;28;20034;-79
2022/06/14 07:09:21;;;;;;;11.38;2.72;;;23.00;64.00;;;;;;4921969;28;20070;-79
2022/06/14 07:11:59;;;;;;;9.20;2.22;;;23.20;63.60;;;;;;4909667;28;20038;-80
2022/06/14 07:14:47;;;;;;;12.35;3.05;;;23.40;63.00;;;;;;4923415;28;20512;-80
2022/06/14 07:17:41;;;;;;;8.68;2.95;;;23.50;62.00;;;;;;4939622;28;20059;-80
2022/06/14 07:20:28;;;;;;;5.15;2.25;;;23.80;60.60;;;;;;4910708;28;20435;-80
2022/06/14 07:23:26;;;;;;;18.27;2.97;;;23.90;60.10;;;;;;4954352;28;20034;-80
2022/06/14 07:25:58;;;;;;;5.35;1.27;;;24.10;60.00;;;;;;4901537;28;20036;-80
2022/06/14 07:28:28;;;;;;;8.40;1.95;;;24.30;60.30;;;;;;4920266;28;20031;-80
2022/06/14 07:30:56;;;;;;;7.53;2.17;;;24.60;60.10;;;;;;4936293;28;20097;-80
2022/06/14 07:33:23;;;;;;;6.65;2.17;;;25.00;60.10;;;;;;4906684;28;20118;-80
2022/06/14 07:35:52;;;;;;;7.80;1.95;;;25.10;58.80;;;;;;4908965;28;20046;-80
2022/06/14 07:38:29;;;;;;;9.13;2.40;;;25.40;57.80;;;;;;4955204;28;20398;-80
2022/06/14 07:41:17;;;;;;;6.30;2.05;;;25.70;57.70;;;;;;4942787;28;20039;-80
2022/06/14 07:43:55;;;;;;;14.75;2.65;;;26.00;58.00;;;;;;4897955;28;20529;-80
2022/06/14 07:46:27;;;;;;;9.27;2.75;;;26.30;56.70;;;;;;4934837;28;20039;-81
2022/06/14 07:49:03;;;;;;;6.90;1.88;;;26.60;56.00;;;;;;4911233;28;20035;-81
2022/06/14 07:51:34;;;;;;;16.27;3.30;;;26.90;55.10;;;;;;4923199;28;20045;-81
2022/06/14 07:54:21;;;;;;;8.45;2.78;;;27.30;54.70;;;;;;4926226;28;20146;-82
2022/06/14 07:56:55;;;;;;;10.30;2.65;;;27.60;54.70;;;;;;4939387;28;20668;-83
2022/06/14 07:59:28;;;;;;;9.88;2.05;;;27.70;53.30;;;;;;4922125;28;20094;-81
2022/06/14 08:02:03;;;;;;;12.13;2.03;;;27.90;52.60;;;;;;4924021;28;20035;-82
2022/06/14 08:04:38;;;;;;;7.00;2.28;;;27.80;52.70;;;;;;4895739;28;20121;-83
2022/06/14 08:07:06;;;;;;;13.52;2.80;;;27.70;52.10;;;;;;4929344;28;20465;-82
2022/06/14 08:09:46;;;;;;;10.68;2.88;;;27.60;52.20;;;;;;4905891;28;20088;-83
2022/06/14 08:12:19;;;;;;;6.68;2.53;;;27.50;51.50;;;;;;4937420;28;20058;-84
2022/06/14 08:14:49;;;;;;;11.30;3.25;;;27.40;51.70;;;;;;4921611;28;20039;-81
2022/06/14 08:17:20;;;;;;;11.55;3.53;;;27.30;51.40;;;;;;4912071;28;20381;-83
2022/06/14 08:19:55;;;;;;;10.75;2.85;;;27.10;51.00;;;;;;4904631;28;20534;-82
2022/06/14 08:22:35;;;;;;;17.50;3.63;;;26.90;51.30;;;;;;4935537;28;20035;-82
2022/06/14 08:25:10;;;;;;;9.18;2.95;;;26.70;51.50;;;;;;4908192;28;20990;-82
2022/06/14 08:27:39;;;;;;;7.07;2.80;;;26.60;51.60;;;;;;4919427;28;20031;-82
2022/06/14 08:30:27;;;;;;;8.52;3.13;;;26.50;51.20;;;;;;4923649;28;20034;-82
2022/06/14 08:33:20;;;;;;;7.68;2.63;;;26.50;51.20;;;;;;4919358;29;20039;-81
2022/06/14 08:35:50;;;;;;;7.47;2.20;;;26.60;51.80;;;;;;4894133;28;20106;-82
2022/06/14 08:38:28;;;;;;;6.43;2.50;;;26.70;51.50;;;;;;4921638;28;20042;-81
2022/06/14 08:41:12;;;;;;;8.05;2.33;;;26.50;52.30;;;;;;4908835;28;20047;-82
2022/06/14 08:43:44;;;;;;;8.77;2.60;;;26.40;51.80;;;;;;4939542;28;20034;-83
2022/06/14 08:46:37;;;;;;;6.75;2.03;;;26.70;52.40;;;;;;4908179;28;20555;-82
2022/06/14 08:49:51;;;;;;;5.10;2.33;;;26.90;51.70;;;;;;4946786;28;20038;-82
2022/06/14 08:52:53;;;;;;;7.22;1.92;;;27.10;52.30;;;;;;4927543;28;20113;-82
2022/06/14 08:55:26;;;;;;;6.40;2.28;;;27.10;53.50;;;;;;4951372;28;20040;-84
2022/06/14 08:58:08;;;;;;;3.58;1.65;;;27.50;53.30;;;;;;4953720;28;20610;-82
2022/06/14 09:00:56;;;;;;;7.00;2.60;;;27.80;52.80;;;;;;4926241;28;20561;-83
2022/06/14 09:03:51;;;;;;;9.77;3.10;;;28.90;51.10;;;;;;4956189;28;20027;-83
2022/06/14 09:06:39;;;;;;;6.60;2.50;;;29.70;48.00;;;;;;4883935;28;20098;-86
2022/06/14 09:09:10;;;;;;;5.80;2.38;;;29.90;48.50;;;;;;4937705;29;20043;-86
2022/06/14 09:11:59;;;;;;;8.02;2.45;;;30.40;48.20;;;;;;4935313;28;20043;-86
2022/06/14 09:14:51;;;;;;;12.60;3.33;;;30.90;46.40;;;;;;4941532;28;20494;-86
2022/06/14 09:17:48;;;;;;;7.97;3.45;;;31.40;45.70;;;;;;4911125;29;20136;-87
2022/06/14 09:20:21;;;;;;;16.40;4.05;;;31.30;44.40;;;;;;4936497;28;20434;-85
2022/06/14 09:23:11;;;;;;;13.52;3.78;;;31.10;45.00;;;;;;4925670;28;20047;-86
2022/06/14 09:25:54;;;;;;;10.40;3.10;;;30.80;44.90;;;;;;4948932;28;20024;-86
2022/06/14 09:28:29;;;;;;;6.78;3.10;;;30.70;43.20;;;;;;4934277;28;20031;-87
2022/06/14 09:31:22;;;;;;;6.93;3.00;;;30.50;44.10;;;;;;4931628;28;20039;-87
2022/06/14 09:34:17;;;;;;;10.27;3.13;;;30.70;44.60;;;;;;4922058;29;20097;-85
2022/06/14 09:36:58;;;;;;;9.63;3.35;;;30.70;44.10;;;;;;4893994;28;20027;-85
2022/06/14 09:39:52;;;;;;;6.43;2.60;;;30.50;44.00;;;;;;4943194;28;20462;-86
2022/06/14 09:42:49;;;;;;;6.55;2.63;;;30.30;44.40;;;;;;4923326;28;20134;-86
2022/06/14 09:45:44;;;;;;;8.52;2.83;;;30.20;44.70;;;;;;4935788;29;20028;-86
2022/06/14 09:48:17;;;;;;;6.13;2.17;;;30.00;44.30;;;;;;4932823;28;20101;-85
2022/06/14 09:51:10;;;;;;;7.15;2.47;;;29.70;44.80;;;;;;4935407;28;20122;-85
2022/06/14 09:54:16;;;;;;;7.32;2.40;;;29.40;45.20;;;;;;4931097;29;20126;-86
2022/06/14 09:57:30;;;;;;;7.35;2.03;;;29.50;45.30;;;;;;4889098;28;20062;-85
2022/06/14 10:00:21;;;;;;;6.85;2.40;;;29.80;45.20;;;;;;4826563;29;20034;-85
2022/06/14 10:03:07;;;;;;;10.35;2.38;;;29.90;46.30;;;;;;4833155;29;20418;-84
2022/06/14 10:06:10;;;;;;;8.75;3.40;;;30.30;44.20;;;;;;4923316;29;20490;-83
2022/06/14 10:09:00;;;;;;;10.07;3.72;;;31.10;42.20;;;;;;4937035;28;20047;-82
2022/06/14 10:11:44;;;;;;;9.40;3.72;;;31.50;42.00;;;;;;4935354;28;20043;-82
2022/06/14 10:14:35;;;;;;;7.75;4.05;;;31.70;42.30;;;;;;4932166;28;20425;-81
2022/06/14 10:17:10;;;;;;;9.85;3.80;;;32.00;42.00;;;;;;4940990;28;20039;-82
2022/06/14 10:19:55;;;;;;;9.88;3.47;;;32.00;40.60;;;;;;4933880;28;20046;-82
2022/06/14 10:22:20;;;;;;;7.45;3.50;;;31.80;41.40;;;;;;4905520;28;20163;-81
2022/06/14 10:24:56;;;;;;;13.40;3.47;;;31.70;42.10;;;;;;4951090;28;20130;-81
2022/06/14 10:30:58;;;;;;;13.15;3.75;;;31.70;42.30;;;;;;4939988;28;20502;-81
2022/06/14 10:33:23;;;;;;;4.97;2.28;;;32.00;41.10;;;;;;4939899;28;20086;-81
2022/06/14 10:35:57;;;;;;;5.43;2.38;;;32.00;43.00;;;;;;4936051;28;20038;-81
2022/06/14 10:38:46;;;;;;;4.47;2.13;;;31.90;43.90;;;;;;4935993;28;20037;-80
2022/06/14 10:41:43;;;;;;;8.25;2.92;;;31.90;44.40;;;;;;4935312;28;20447;-80
2022/06/14 10:44:28;;;;;;;10.52;3.65;;;32.50;42.90;;;;;;4949490;28;20035;-79
2022/06/14 10:47:05;;;;;;;8.13;3.53;;;32.90;40.10;;;;;;4916823;28;20044;-80
2022/06/14 10:49:44;;;;;;;11.50;4.22;;;33.00;39.70;;;;;;4921215;28;20031;-80
2022/06/14 10:52:34;;;;;;;19.20;3.80;;;33.10;40.00;;;;;;4938599;28;20047;-80
2022/06/14 10:55:00;;;;;;;9.68;3.00;;;33.10;41.00;;;;;;4950957;28;20427;-79
2022/06/14 10:57:47;;;;;;;8.68;3.47;;;33.20;40.30;;;;;;4953002;28;20028;-80
2022/06/14 11:00:24;;;;;;;9.13;3.60;;;33.20;39.00;;;;;;4939202;28;20042;-80
2022/06/14 11:02:59;;;;;;;7.05;2.90;;;33.10;38.90;;;;;;4941450;28;20027;-80
2022/06/14 11:05:45;;;;;;;7.78;3.80;;;32.90;39.50;;;;;;4939773;28;20058;-79
2022/06/14 11:08:42;;;;;;;10.32;3.90;;;33.10;39.60;;;;;;4922685;28;20530;-79
2022/06/14 11:11:34;;;;;;;9.07;3.65;;;33.10;39.30;;;;;;4327273;29;10000888;-80
2022/06/14 11:14:15;;;;;;;12.70;4.43;;;33.20;39.70;;;;;;4936307;28;20751;-80
2022/06/14 11:17:22;;;;;;;8.48;5.00;;;33.40;37.90;;;;;;4944981;28;20035;-79
2022/06/14 11:20:01;;;;;;;8.50;4.82;;;33.10;38.50;;;;;;4934979;28;20050;-80
2022/06/14 11:22:39;;;;;;;8.88;4.32;;;33.20;37.90;;;;;;4937097;28;20712;-80
2022/06/14 11:25:19;;;;;;;5.93;3.03;;;32.80;38.90;;;;;;4921780;28;20032;-80
2022/06/14 11:28:03;;;;;;;9.65;4.00;;;32.80;39.50;;;;;;4937796;28;20027;-79
2022/06/14 11:30:29;;;;;;;6.93;3.10;;;33.00;39.60;;;;;;4937181;28;20047;-80
2022/06/14 11:33:08;;;;;;;8.05;3.22;;;33.10;40.80;;;;;;4939456;28;20038;-80
2022/06/14 11:36:00;;;;;;;8.77;3.72;;;33.10;40.00;;;;;;4925952;28;20456;-80
2022/06/14 11:38:32;;;;;;;9.43;4.40;;;33.30;39.80;;;;;;4947959;28;20023;-79
2022/06/14 11:41:05;;;;;;;7.28;3.15;;;33.30;39.20;;;;;;4933513;28;20059;-79
2022/06/14 11:44:03;;;;;;;8.10;3.40;;;33.40;39.10;;;;;;4924718;28;20039;-79
2022/06/14 11:46:38;;;;;;;5.57;2.90;;;33.60;39.50;;;;;;4953730;28;20082;-79
2022/06/14 11:49:15;;;;;;;10.10;3.75;;;33.50;39.30;;;;;;4937515;28;20491;-79
2022/06/14 11:51:46;;;;;;;5.43;2.78;;;33.50;38.60;;;;;;4936698;28;20557;-80
2022/06/14 11:54:48;;;;;;;8.00;3.65;;;33.40;39.40;;;;;;4954422;28;20495;-81
2022/06/14 11:57:35;;;;;;;7.65;3.08;;;33.70;38.90;;;;;;4961202;28;20039;-81
2022/06/14 12:00:19;;;;;;;10.13;4.05;;;33.70;38.70;;;;;;4926606;28;20027;-80
2022/06/14 12:03:09;;;;;;;9.00;4.28;;;33.90;38.10;;;;;;4928837;28;20577;-79
2022/06/14 12:06:23;;;;;;;11.40;4.07;;;34.00;36.90;;;;;;4939168;28;20403;-80
2022/06/14 12:09:11;;;;;;;8.25;3.20;;;34.00;37.30;;;;;;4942022;28;20522;-81
2022/06/14 12:12:07;;;;;;;4.75;2.65;;;33.80;37.50;;;;;;4935637;28;20039;-80
2022/06/14 12:14:48;;;;;;;4.15;2.40;;;33.70;38.20;;;;;;4934342;28;20031;-80
2022/06/14 12:17:41;;;;;;;4.72;2.60;;;34.30;39.00;;;;;;4953376;28;20031;-81
2022/06/14 12:20:14;;;;;;;7.28;3.25;;;34.10;38.40;;;;;;4953542;28;20031;-79
2022/06/14 12:22:46;;;;;;;9.13;3.30;;;34.20;37.50;;;;;;4911021;29;20067;-81
2022/06/14 12:28:20;;;;;;;7.65;3.10;;;34.30;37.50;;;;;;4944368;28;20078;-81
2022/06/14 12:30:46;;;;;;;8.20;3.60;;;34.40;36.20;;;;;;4934824;28;20603;-80
2022/06/14 12:33:29;;;;;;;9.95;4.10;;;34.40;37.10;;;;;;4923209;28;20035;-81
2022/06/14 12:36:12;;;;;;;6.28;2.65;;;34.30;36.50;;;;;;4921571;28;20032;-81
2022/06/14 12:38:39;;;;;;;7.00;3.03;;;34.40;36.10;;;;;;4956144;28;20479;-81
2022/06/14 12:41:10;;;;;;;5.32;2.15;;;34.40;36.40;;;;;;4923037;28;20123;-80
2022/06/14 12:43:56;;;;;;;6.07;2.30;;;34.40;36.80;;;;;;4937098;28;20574;-80
2022/06/14 12:46:24;;;;;;;6.10;2.53;;;34.50;37.20;;;;;;4936417;28;20039;-81
2022/06/14 12:48:56;;;;;;;7.38;2.97;;;34.70;37.70;;;;;;4937759;28;20780;-81
2022/06/14 12:51:34;;;;;;;5.18;2.53;;;34.80;37.20;;;;;;4956672;28;20034;-79
2022/06/14 12:54:18;;;;;;;5.15;1.95;;;35.20;37.30;;;;;;4936010;28;20058;-79
2022/06/14 12:56:53;;;;;;;5.10;2.90;;;35.50;37.80;;;;;;4923936;28;20513;-79
2022/06/14 12:59:26;;;;;;;5.70;2.20;;;35.50;35.50;;;;;;4938635;28;20050;-81
2022/06/14 13:02:12;;;;;;;5.72;3.22;;;35.40;35.70;;;;;;4938895;28;20063;-80
2022/06/14 13:04:54;;;;;;;6.15;2.50;;;35.60;37.90;;;;;;4938226;28;20098;-81
2022/06/14 13:07:38;;;;;;;5.22;2.35;;;35.80;37.30;;;;;;4924664;28;20027;-79
2022/06/14 13:10:16;;;;;;;3.85;1.88;;;35.70;37.00;;;;;;4904146;28;20043;-81
2022/06/14 13:13:09;;;;;;;6.75;2.38;;;35.90;37.20;;;;;;4920058;28;20036;-79
2022/06/14 13:15:44;;;;;;;5.13;2.42;;;36.00;37.40;;;;;;4919624;28;20050;-81
2022/06/14 13:18:37;;;;;;;8.18;2.83;;;36.00;37.10;;;;;;4949570;28;20392;-82
2022/06/14 13:21:40;;;;;;;7.68;2.58;;;36.10;35.50;;;;;;4929282;28;20046;-81
2022/06/14 13:24:24;;;;;;;6.75;2.92;;;36.30;35.20;;;;;;4941711;28;20058;-81
2022/06/14 13:26:49;;;;;;;4.18;2.38;;;36.20;34.90;;;;;;4925903;28;20031;-81
2022/06/14 13:29:15;;;;;;;6.68;2.25;;;36.40;35.60;;;;;;4952519;28;20032;-81
2022/06/14 13:32:10;;;;;;;5.70;2.88;;;36.50;34.60;;;;;;4930672;28;20395;-81
2022/06/14 13:34:44;;;;;;;4.37;1.97;;;36.60;34.60;;;;;;4936186;28;20031;-81
2022/06/14 13:37:21;;;;;;;3.60;1.92;;;36.70;34.60;;;;;;4927508;28;20414;-81
2022/06/14 13:39:57;;;;;;;10.77;2.50;;;36.70;34.70;;;;;;4919338;28;20668;-81
2022/06/14 13:42:32;;;;;;;7.18;2.78;;;36.80;33.50;;;;;;4926529;28;20035;-81
2022/06/14 13:45:03;;;;;;;6.40;2.97;;;36.90;33.60;;;;;;4940228;28;20047;-81
2022/06/14 13:47:39;;;;;;;9.20;2.67;;;37.00;33.80;;;;;;4919351;28;20380;-81
2022/06/14 13:50:22;;;;;;;8.02;3.10;;;37.00;33.00;;;;;;4910651;28;20054;-82
2022/06/14 13:52:55;;;;;;;5.03;2.65;;;37.00;32.20;;;;;;4921809;28;20125;-81
2022/06/14 13:55:40;;;;;;;6.95;2.80;;;36.90;34.10;;;;;;4936250;28;20030;-80
2022/06/14 13:58:10;;;;;;;4.57;2.22;;;37.00;33.50;;;;;;4923078;28;20034;-81
2022/06/14 14:00:53;;;;;;;5.57;2.80;;;37.10;34.00;;;;;;4920329;28;20043;-81